Time;durP1;ratioP1;P1;durP2;ratioP2;P2;SDS_P1;SDS_P2;PMS_P1;PMS_P2;Temp;Humidity;BMP_temperature;BMP_pressure;BME280_temperature;BME280_humidity;BME280_pressure;Samples;Min_cycle;Max_cycle;Signal;HPM_P1;HPM_P2
2021/09/26 00:00:50;;;;;;;7.40;5.05;;;;;;;13.81;100.00;93274.34;2122144;27;20579;-78
2021/09/26 00:01:51;;;;;;;7.55;5.68;;;;;;;13.77;100.00;93275.63;2120166;27;20072;-79
2021/09/26 00:02:51;;;;;;;9.43;5.60;;;;;;;13.75;100.00;93267.28;2128387;27;20022;-81
2021/09/26 00:03:54;;;;;;;11.82;5.18;;;;;;;13.70;100.00;93270.50;2122910;27;20093;-81
2021/09/26 00:04:56;;;;;;;9.15;5.40;;;;;;;13.64;100.00;93270.28;2124227;27;20027;-80
2021/09/26 00:05:57;;;;;;;6.10;5.10;;;;;;;13.61;100.00;93260.41;2125503;27;20023;-80
2021/09/26 00:06:58;;;;;;;5.82;4.43;;;;;;;13.64;100.00;93262.22;2115205;28;20512;-79
2021/09/26 00:07:59;;;;;;;9.40;5.57;;;;;;;13.59;100.00;93255.44;2105840;28;20040;-80
2021/09/26 00:09:00;;;;;;;8.93;5.18;;;;;;;13.54;100.00;93263.31;2112315;27;20038;-79
2021/09/26 00:10:01;;;;;;;6.80;4.75;;;;;;;13.46;100.00;93267.38;2118255;27;20027;-79
2021/09/26 00:11:05;;;;;;;6.85;4.97;;;;;;;13.48;100.00;93265.78;2123886;27;20019;-82
2021/09/26 00:12:07;;;;;;;6.35;5.00;;;;;;;13.51;100.00;93266.84;2124374;27;20020;-79
2021/09/26 00:13:08;;;;;;;5.80;4.60;;;;;;;13.55;100.00;93260.19;2114755;28;20030;-82
2021/09/26 00:14:09;;;;;;;6.95;5.30;;;;;;;13.57;100.00;93254.41;2114439;28;20109;-79
2021/09/26 00:15:17;;;;;;;8.75;4.90;;;;;;;13.44;100.00;93259.78;2122232;27;20031;-80
2021/09/26 00:16:18;;;;;;;6.13;4.88;;;;;;;13.43;100.00;93258.25;2112862;28;20550;-81
2021/09/26 00:17:19;;;;;;;7.53;5.20;;;;;;;13.35;100.00;93263.09;2101256;28;20020;-79
2021/09/26 00:18:20;;;;;;;6.13;4.22;;;;;;;13.28;100.00;93249.88;2109841;28;20023;-81
2021/09/26 00:19:21;;;;;;;7.95;4.97;;;;;;;13.32;100.00;93257.81;2112870;28;20024;-80
2021/09/26 00:20:23;;;;;;;7.38;4.95;;;;;;;13.28;100.00;93249.88;2123787;27;20106;-81
2021/09/26 00:21:24;;;;;;;8.20;4.93;;;;;;;13.21;100.00;93254.66;2124080;27;20114;-80
2021/09/26 00:22:25;;;;;;;6.00;4.78;;;;;;;13.17;100.00;93254.78;2120700;27;20084;-81
2021/09/26 00:23:26;;;;;;;7.10;4.80;;;;;;;13.19;100.00;93259.72;2112555;27;20027;-79
2021/09/26 00:24:27;;;;;;;8.80;5.35;;;;;;;13.18;100.00;93258.97;2118556;27;20019;-79
2021/09/26 00:25:28;;;;;;;6.97;4.63;;;;;;;13.15;100.00;93259.81;2114559;28;20835;-81
2021/09/26 00:26:29;;;;;;;8.57;5.00;;;;;;;13.18;100.00;93250.91;2104512;28;20094;-81
2021/09/26 00:27:30;;;;;;;8.45;5.55;;;;;;;13.15;100.00;93246.41;2115020;28;20547;-80
2021/09/26 00:28:32;;;;;;;7.78;5.57;;;;;;;13.19;100.00;93255.09;2113917;28;20015;-80
2021/09/26 00:29:33;;;;;;;7.88;5.07;;;;;;;13.23;100.00;93244.28;2115049;28;20092;-78
2021/09/26 00:30:34;;;;;;;7.00;5.28;;;;;;;13.22;100.00;93253.50;2123998;27;20031;-81
2021/09/26 00:31:35;;;;;;;9.48;5.43;;;;;;;13.20;100.00;93245.88;2124644;27;20019;-78
2021/09/26 00:32:36;;;;;;;11.02;5.53;;;;;;;13.20;100.00;93248.53;2128293;27;20092;-80
2021/09/26 00:33:37;;;;;;;10.25;5.10;;;;;;;13.15;100.00;93246.41;2123885;27;20371;-79
2021/09/26 00:34:38;;;;;;;8.75;5.00;;;;;;;13.20;100.00;93247.78;2113526;28;20045;-79
2021/09/26 00:35:39;;;;;;;7.88;5.30;;;;;;;13.16;100.00;93253.25;2113011;28;20031;-80
2021/09/26 00:36:40;;;;;;;9.65;5.75;;;;;;;13.17;100.00;93249.44;2120496;27;20027;-79
2021/09/26 00:37:41;;;;;;;7.20;4.80;;;;;;;13.19;100.00;93251.66;2124254;27;20098;-81
2021/09/26 00:38:42;;;;;;;5.85;5.25;;;;;;;13.16;100.00;93244.47;2114758;28;20023;-80
2021/09/26 00:39:43;;;;;;;6.70;5.18;;;;;;;13.22;100.00;93245.47;2093094;28;20024;-80
2021/09/26 00:40:46;;;;;;;8.48;5.65;;;;;;;13.28;100.00;93249.13;2106588;27;20515;-79
2021/09/26 00:41:48;;;;;;;6.63;5.10;;;;;;;13.27;100.00;93242.25;2123830;27;20047;-79
2021/09/26 00:42:49;;;;;;;6.88;5.10;;;;;;;13.19;100.00;93239.00;2106421;28;20032;-79
2021/09/26 00:43:50;;;;;;;7.22;5.20;;;;;;;13.18;100.00;93245.56;2100870;28;20365;-83
2021/09/26 00:44:51;;;;;;;10.15;5.50;;;;;;;13.08;100.00;93247.38;2106323;28;20491;-79
2021/09/26 00:45:52;;;;;;;5.88;5.28;;;;;;;13.05;100.00;93245.53;2104455;28;20085;-81
2021/09/26 00:46:53;;;;;;;11.60;5.35;;;;;;;13.01;100.00;93241.47;2112680;28;20507;-81
2021/09/26 00:47:54;;;;;;;6.90;4.70;;;;;;;12.96;100.00;93244.66;2123342;27;20471;-80
2021/09/26 00:48:55;;;;;;;6.28;4.28;;;;;;;13.00;100.00;93243.38;2125134;27;20027;-78
2021/09/26 00:49:56;;;;;;;6.15;4.85;;;;;;;13.06;100.00;93254.34;2111951;28;20583;-79
2021/09/26 00:50:57;;;;;;;10.85;5.55;;;;;;;13.07;100.00;93245.84;2101829;28;20029;-78
2021/09/26 00:51:59;;;;;;;6.32;4.93;;;;;;;13.15;100.00;93251.03;2114792;27;20115;-78
2021/09/26 00:53:00;;;;;;;6.65;4.43;;;;;;;12.98;100.00;93248.41;2129852;27;20754;-79
2021/09/26 00:54:01;;;;;;;11.70;4.63;;;;;;;12.91;100.00;93247.88;2113942;28;20031;-79
2021/09/26 00:55:02;;;;;;;5.60;4.63;;;;;;;12.88;100.00;93244.13;2114871;28;20019;-79
2021/09/26 00:56:04;;;;;;;5.10;4.47;;;;;;;12.93;100.00;93246.28;2123858;27;20027;-79
2021/09/26 00:57:05;;;;;;;8.57;4.85;;;;;;;12.91;100.00;93248.63;2108917;28;20024;-82
2021/09/26 00:58:06;;;;;;;5.60;4.65;;;;;;;12.88;100.00;93246.06;2106453;28;20016;-77
2021/09/26 00:59:07;;;;;;;7.53;5.05;;;;;;;12.91;100.00;93247.88;2114691;28;20063;-81
2021/09/26 01:00:11;;;;;;;8.98;4.80;;;;;;;12.80;100.00;93253.53;2110019;28;20043;-79
2021/09/26 01:01:11;;;;;;;8.00;4.40;;;;;;;12.75;100.00;93259.44;2107747;27;20028;-79
2021/09/26 01:02:12;;;;;;;5.88;4.60;;;;;;;12.73;100.00;93259.88;2123546;27;20015;-79
2021/09/26 01:03:13;;;;;;;10.05;4.80;;;;;;;12.78;100.00;93255.91;2119379;27;20066;-79
2021/09/26 01:04:18;;;;;;;7.80;4.40;;;;;;;12.74;100.00;93255.25;2125842;27;20030;-78
2021/09/26 01:05:24;;;;;;;7.10;4.82;;;;;;;12.68;100.00;93257.69;2103750;28;20107;-83
2021/09/26 01:06:49;;;;;;;7.43;4.53;;;;;;;12.68;100.00;93248.88;2096668;28;20039;-81
2021/09/26 01:08:30;;;;;;;7.85;4.32;;;;;;;12.81;100.00;93255.03;2117563;27;20043;-76
2021/09/26 01:09:57;;;;;;;6.25;4.38;;;;;;;12.76;100.00;93248.28;2109798;28;20029;-81
2021/09/26 01:11:05;;;;;;;6.32;4.47;;;;;;;12.74;100.00;93247.22;2101027;28;20174;-79
2021/09/26 01:12:17;;;;;;;5.60;4.28;;;;;;;12.60;100.00;93251.03;2113971;28;20030;-79
2021/09/26 01:13:24;;;;;;;9.82;4.15;;;;;;;12.66;100.00;93243.22;2113713;28;20032;-79
2021/09/26 01:14:40;;;;;;;5.13;4.63;;;;;;;12.59;100.00;93252.19;2113772;28;20107;-80
2021/09/26 01:16:08;;;;;;;7.15;5.15;;;;;;;12.55;100.00;93243.50;2107179;28;20062;-78
2021/09/26 01:17:24;;;;;;;5.18;4.40;;;;;;;12.52;100.00;93249.72;2103668;28;20079;-80
2021/09/26 01:18:50;;;;;;;6.13;4.15;;;;;;;12.52;100.00;93241.69;2113912;28;20062;-80
2021/09/26 01:20:00;;;;;;;6.90;4.10;;;;;;;12.48;100.00;93243.69;2108800;28;20024;-79
2021/09/26 01:21:38;;;;;;;5.10;4.57;;;;;;;12.41;100.00;93249.25;2112087;27;20520;-79
2021/09/26 01:23:03;;;;;;;5.18;4.57;;;;;;;12.40;100.00;93245.81;2113567;28;20361;-77
2021/09/26 01:24:19;;;;;;;5.18;4.30;;;;;;;12.45;100.00;93250.66;2113208;28;20057;-79
2021/09/26 01:25:51;;;;;;;5.45;4.32;;;;;;;12.37;100.00;93243.97;2113504;28;20068;-80
2021/09/26 01:27:12;;;;;;;6.45;4.15;;;;;;;12.29;100.00;93237.28;2114700;28;20178;-81
2021/09/26 01:28:30;;;;;;;6.10;4.70;;;;;;;12.18;100.00;93252.91;2111939;28;20115;-79
2021/09/26 01:30:10;;;;;;;5.40;4.15;;;;;;;12.14;100.00;93246.88;2108764;28;20103;-81
2021/09/26 01:31:14;;;;;;;10.13;4.38;;;;;;;12.19;100.00;93247.13;2118193;27;20019;-81
2021/09/26 01:32:18;;;;;;;7.72;4.28;;;;;;;12.23;100.00;93249.72;2114893;28;20101;-79
2021/09/26 01:33:33;;;;;;;6.60;4.03;;;;;;;12.28;100.00;93249.19;2115068;28;20023;-81
2021/09/26 01:34:47;;;;;;;6.50;3.80;;;;;;;12.34;100.00;93239.47;2114830;28;20111;-78
2021/09/26 01:36:06;;;;;;;9.00;4.80;;;;;;;12.35;100.00;93240.97;2114066;27;20103;-80
2021/09/26 01:37:20;;;;;;;5.28;4.18;;;;;;;12.40;100.00;93245.06;2110392;28;20033;-80
2021/09/26 01:38:30;;;;;;;7.82;4.72;;;;;;;12.39;100.00;93241.63;2115109;28;20027;-79
2021/09/26 01:39:39;;;;;;;7.10;4.57;;;;;;;12.39;100.00;93244.31;2113420;28;20338;-80
2021/09/26 01:40:47;;;;;;;8.45;4.45;;;;;;;12.31;100.00;93243.00;2112650;28;20096;-77
2021/09/26 01:41:51;;;;;;;7.75;3.95;;;;;;;12.29;100.00;93248.00;2113557;28;20016;-78
2021/09/26 01:43:06;;;;;;;6.97;4.60;;;;;;;12.29;100.00;93242.66;2112313;28;20484;-77
2021/09/26 01:44:15;;;;;;;4.85;4.32;;;;;;;12.17;100.00;93244.13;2099553;28;20382;-80
2021/09/26 01:45:30;;;;;;;6.65;4.43;;;;;;;12.16;100.00;93247.97;2107523;28;20493;-80
2021/09/26 01:46:35;;;;;;;9.65;4.45;;;;;;;12.14;100.00;93247.63;2115058;28;20024;-80
2021/09/26 01:47:46;;;;;;;5.88;4.50;;;;;;;12.17;100.00;93246.03;2111268;28;20067;-79
2021/09/26 01:49:00;;;;;;;8.45;4.32;;;;;;;12.22;100.00;93242.84;2110561;28;20034;-79
2021/09/26 01:50:06;;;;;;;5.30;4.22;;;;;;;12.15;100.00;93245.69;2104381;28;20595;-79
2021/09/26 01:51:09;;;;;;;5.60;3.95;;;;;;;12.04;100.00;93241.38;2104175;28;20034;-78
2021/09/26 01:52:18;;;;;;;5.00;4.50;;;;;;;12.04;100.00;93244.06;2115124;28;20083;-79
2021/09/26 01:53:23;;;;;;;5.10;4.18;;;;;;;12.03;100.00;93239.88;2114921;28;20020;-83
2021/09/26 01:54:25;;;;;;;10.80;4.57;;;;;;;12.11;100.00;93240.44;2113895;28;20102;-77
2021/09/26 01:55:27;;;;;;;6.53;4.35;;;;;;;12.04;100.00;93243.31;2112292;28;20028;-81
2021/09/26 01:56:29;;;;;;;8.32;4.35;;;;;;;12.01;100.00;93244.88;2109689;27;20107;-80
2021/09/26 01:57:31;;;;;;;6.57;4.30;;;;;;;12.00;100.00;93248.00;2104547;28;20381;-80
2021/09/26 01:58:33;;;;;;;5.22;4.70;;;;;;;11.96;100.00;93236.63;2112805;28;20102;-79
2021/09/26 01:59:34;;;;;;;6.03;4.13;;;;;;;11.89;100.00;93244.81;2110496;28;20534;-81
2021/09/26 02:00:40;;;;;;;4.90;4.40;;;;;;;11.79;100.00;93243.88;2108197;28;20068;-77
2021/09/26 02:01:42;;;;;;;4.50;4.00;;;;;;;11.81;100.00;93241.56;2114045;28;20118;-78
2021/09/26 02:02:47;;;;;;;5.43;4.03;;;;;;;11.79;100.00;93239.28;2104965;28;20409;-78
2021/09/26 02:03:48;;;;;;;6.40;4.18;;;;;;;11.80;100.00;93235.41;2112013;28;20020;-79
2021/09/26 02:04:51;;;;;;;9.60;5.03;;;;;;;11.86;100.00;93240.31;2115732;28;20015;-82
2021/09/26 02:07:41;;;;;;;;;;;;;;;11.90;100.00;93233.69;2148600;27;20120;-79
2021/09/26 02:08:43;;;;;;;;;;;;;;;11.86;100.00;93237.66;2126757;27;19915;-80
2021/09/26 02:09:44;;;;;;;;;;;;;;;11.82;100.00;93233.13;2130434;27;20005;-77
2021/09/26 02:10:47;;;;;;;;;;;;;;;11.80;100.00;93235.41;2139954;27;20701;-77
2021/09/26 02:11:49;;;;;;;;;;;;;;;11.82;100.00;93237.69;2133741;27;19960;-78
2021/09/26 02:12:50;;;;;;;;;;;;;;;11.81;100.00;93233.53;2140848;27;19966;-77
2021/09/26 02:13:52;;;;;;;;;;;;;;;11.82;100.00;93232.34;2136990;27;19990;-79
2021/09/26 02:14:53;;;;;;;;;;;;;;;11.79;100.00;93228.56;2142045;27;19965;-78
2021/09/26 02:15:55;;;;;;;;;;;;;;;11.76;100.00;93234.00;2139909;27;19906;-76
2021/09/26 02:16:56;;;;;;;;;;;;;;;11.78;100.00;93226.31;2129660;27;19922;-77
2021/09/26 02:17:59;;;;;;;;;;;;;;;11.84;100.00;93232.69;2132232;27;19911;-78
2021/09/26 02:19:01;;;;;;;;;;;;;;;11.78;100.00;93229.75;2131332;27;19979;-80
2021/09/26 02:20:02;;;;;;;;;;;;;;;11.75;100.00;93227.16;2129308;27;19919;-79
2021/09/26 02:21:04;;;;;;;;;;;;;;;11.72;100.00;93233.34;2142444;27;19967;-79
2021/09/26 02:22:06;;;;;;;;;;;;;;;11.63;100.00;93235.84;2144285;27;19933;-76
2021/09/26 02:23:07;;;;;;;;;;;;;;;11.66;100.00;93235.03;2142993;27;19959;-77
2021/09/26 02:24:08;;;;;;;;;;;;;;;11.67;100.00;93231.16;2139499;27;19966;-80
2021/09/26 02:25:09;;;;;;;;;;;;;;;11.65;100.00;93220.88;2143803;27;19969;-77
2021/09/26 02:26:10;;;;;;;;;;;;;;;11.66;100.00;93232.34;2139908;27;19910;-76
2021/09/26 02:27:11;;;;;;;;;;;;;;;11.65;100.00;93225.50;2121889;28;19915;-76
2021/09/26 02:28:12;;;;;;;;;;;;;;;11.62;100.00;93218.28;2121763;28;19963;-78
2021/09/26 02:29:13;;;;;;;;;;;;;;;11.59;100.00;93228.69;2129831;27;20351;-76
2021/09/26 02:30:14;;;;;;;;;;;;;;;11.56;100.00;93231.44;2139881;27;19906;-79
2021/09/26 02:31:15;;;;;;;;;;;;;;;11.53;100.00;93232.25;2144158;27;19911;-78
2021/09/26 02:32:16;;;;;;;;;;;;;;;11.58;100.00;93221.03;2131176;27;19911;-78
2021/09/26 02:33:17;;;;;;;;;;;;;;;11.53;100.00;93227.66;2130233;27;19911;-77
2021/09/26 02:34:17;;;;;;;;;;;;;;;11.55;100.00;93219.97;2121950;28;19911;-80
2021/09/26 02:35:18;;;;;;;;;;;;;;;11.49;100.00;93224.31;2121129;27;19967;-80
2021/09/26 02:36:21;;;;;;;;;;;;;;;11.45;100.00;93220.22;2139562;27;19918;-79
2021/09/26 02:37:21;;;;;;;;;;;;;;;11.45;100.00;93218.28;2123238;27;19911;-79
2021/09/26 02:38:22;;;;;;;;;;;;;;;11.48;100.00;93225.47;2113368;28;20274;-82
2021/09/26 02:39:23;;;;;;;;;;;;;;;11.50;100.00;93220.47;2121938;27;19915;-76
2021/09/26 02:40:24;;;;;;;;;;;;;;;11.39;100.00;93219.97;2113174;28;19942;-78
2021/09/26 02:41:31;;;;;;;;;;;;;;;11.41;100.00;93225.63;2119603;27;20288;-82
2021/09/26 02:42:49;;;;;;;;;;;;;;;11.47;100.00;93215.97;2134198;27;19942;-79
2021/09/26 02:43:54;;;;;;;;;;;;;;;11.48;100.00;93211.34;2139544;27;19922;-80
2021/09/26 02:45:03;;;;;;;;;;;;;;;11.43;100.00;93206.50;2132062;27;19911;-81
2021/09/26 02:46:17;;;;;;;;;;;;;;;11.46;100.00;93206.44;2130180;27;19953;-79
2021/09/26 02:47:21;;;;;;;;;;;;;;;11.54;100.00;93209.66;2139115;27;19911;-79
2021/09/26 02:48:24;;;;;;;;;;;;;;;11.54;100.00;93201.63;2139219;27;20400;-79
2021/09/26 02:49:25;;;;;;;;;;;;;;;11.63;100.00;93198.38;2139716;27;19910;-78
2021/09/26 02:50:26;;;;;;;;;;;;;;;11.80;100.00;93192.56;2129623;27;19917;-77
2021/09/26 02:51:28;;;;;;;;;;;;;;;11.81;100.00;93194.09;2130185;27;19919;-79
2021/09/26 02:52:30;;;;;;;;;;;;;;;11.91;100.00;93192.34;2131516;27;19911;-80
2021/09/26 02:53:31;;;;;;;;;;;;;;;11.99;100.00;93188.31;2124394;27;20008;-76
2021/09/26 02:54:37;;;;;;;;;;;;;;;12.12;100.00;93190.28;2114698;28;19916;-78
2021/09/26 02:55:42;;;;;;;;;;;;;;;12.25;100.00;93189.16;2116002;28;19954;-78
2021/09/26 02:56:44;;;;;;;;;;;;;;;12.34;100.00;93185.88;2116234;27;19916;-80
2021/09/26 02:57:45;;;;;;;;;;;;;;;12.37;100.00;93190.34;2123720;27;19929;-78
2021/09/26 02:58:45;;;;;;;;;;;;;;;12.46;100.00;93189.75;2122542;27;19908;-79
2021/09/26 02:59:46;;;;;;;;;;;;;;;12.41;100.00;93188.34;2121883;28;19912;-77
2021/09/26 03:00:48;;;;;;;;;;;;;;;12.54;100.00;93189.13;2113809;27;19962;-80
2021/09/26 03:01:52;;;;;;;;;;;;;;;12.57;100.00;93193.63;2116417;28;19908;-77
2021/09/26 03:02:53;;;;;;;;;;;;;;;12.78;100.00;93191.53;2124095;27;19911;-76
2021/09/26 03:04:03;;;;;;;;;;;;;;;12.79;100.00;93184.97;2134997;27;20370;-80
2021/09/26 03:05:06;;;;;;;;;;;;;;;12.96;100.00;93183.72;2123324;27;19907;-76
2021/09/26 03:06:07;;;;;;;;;;;;;;;12.96;100.00;93194.44;2121711;27;19907;-77
2021/09/26 03:07:08;;;;;;;;;;;;;;;12.96;100.00;93191.00;2113009;28;19916;-76
2021/09/26 03:08:10;;;;;;;;;;;;;;;12.94;100.00;93188.75;2114569;27;19918;-79
2021/09/26 03:09:10;;;;;;;;;;;;;;;12.95;100.00;93192.94;2131586;27;19915;-79
2021/09/26 03:10:11;;;;;;;;;;;;;;;12.95;100.00;93190.25;2122021;28;20311;-78
2021/09/26 03:11:12;;;;;;;;;;;;;;;12.97;100.00;93190.56;2123928;27;19911;-80
2021/09/26 03:12:17;;;;;;;;;;;;;;;12.97;100.00;93189.81;2137881;27;19915;-78
2021/09/26 03:13:18;;;;;;;;;;;;;;;12.98;100.00;93188.63;2128885;27;19993;-79
2021/09/26 03:14:19;;;;;;;;;;;;;;;13.00;100.00;93184.34;2126407;27;19918;-79
2021/09/26 03:15:20;;;;;;;;;;;;;;;12.99;100.00;93187.44;2113097;28;19908;-77
2021/09/26 03:16:21;;;;;;;;;;;;;;;12.98;100.00;93181.34;2113821;28;19908;-79
2021/09/26 03:17:21;;;;;;;;;;;;;;;12.98;100.00;93186.69;2121386;27;20289;-80
2021/09/26 03:18:22;;;;;;;;;;;;;;;13.02;100.00;93183.91;2128741;27;20363;-80
2021/09/26 03:19:23;;;;;;;;;;;;;;;12.97;100.00;93185.22;2124887;27;19935;-77
2021/09/26 03:20:24;;;;;;;;;;;;;;;12.96;100.00;93183.72;2115573;28;20380;-80
2021/09/26 03:21:27;;;;;;;;;;;;;;;12.96;100.00;93188.31;2108804;28;20335;-81
2021/09/26 03:22:28;;;;;;;;;;;;;;;13.05;100.00;93189.19;2116210;27;20293;-79
2021/09/26 03:23:29;;;;;;;;;;;;;;;13.04;100.00;93187.69;2119472;27;19912;-78
2021/09/26 03:24:31;;;;;;;;;;;;;;;12.98;100.00;93199.38;2107494;28;19911;-78
2021/09/26 03:25:31;;;;;;;;;;;;;;;12.92;100.00;93193.03;2116035;28;19923;-78
2021/09/26 03:26:32;;;;;;;;;;;;;;;12.91;100.00;93192.31;2125101;27;19911;-78
2021/09/26 03:27:33;;;;;;;;;;;;;;;12.90;100.00;93184.66;2124799;27;20309;-78
2021/09/26 03:28:34;;;;;;;;;;;;;;;12.90;100.00;93188.09;2122019;27;19950;-77
2021/09/26 03:29:36;;;;;;;;;;;;;;;12.87;100.00;93191.66;2107496;28;20407;-79
2021/09/26 03:30:36;;;;;;;;;;;;;;;12.88;100.00;93192.41;2122053;27;20291;-77
2021/09/26 03:31:37;;;;;;;;;;;;;;;12.87;100.00;93193.59;2117045;27;19962;-81
2021/09/26 03:32:38;;;;;;;;;;;;;;;12.80;100.00;93191.84;2115442;28;19911;-78
2021/09/26 03:33:39;;;;;;;;;;;;;;;12.75;100.00;93187.75;2124932;27;19911;-77
2021/09/26 03:34:40;;;;;;;;;;;;;;;12.72;100.00;93193.97;2127757;27;19911;-79
2021/09/26 03:35:41;;;;;;;;;;;;;;;12.71;100.00;93191.72;2128890;27;19911;-77
2021/09/26 03:36:41;;;;;;;;;;;;;;;12.75;100.00;93198.50;2130768;27;19915;-79
2021/09/26 03:37:42;;;;;;;;;;;;;;;12.76;100.00;93193.88;2115541;28;20557;-79
2021/09/26 03:38:43;;;;;;;;;;;;;;;12.77;100.00;93192.69;2122396;27;19911;-77
2021/09/26 03:39:44;;;;;;;;;;;;;;;12.77;100.00;93190.00;2125275;27;19953;-80
2021/09/26 03:40:45;;;;;;;;;;;;;;;12.74;100.00;93178.22;2127283;27;19908;-79
2021/09/26 03:41:46;;;;;;;;;;;;;;;12.73;100.00;93176.72;2116341;27;20342;-77
2021/09/26 03:42:46;;;;;;;;;;;;;;;12.76;100.00;93183.16;2105391;28;20008;-80
2021/09/26 03:43:47;;;;;;;;;;;;;;;12.71;100.00;93178.31;2114902;28;19982;-77
2021/09/26 03:44:48;;;;;;;;;;;;;;;12.63;100.00;93185.81;2116636;27;19911;-79
2021/09/26 03:45:52;;;;;;;;;;;;;;;12.62;100.00;93180.88;2119657;27;20036;-79
2021/09/26 03:46:53;;;;;;;;;;;;;;;12.68;100.00;93182.59;2111715;28;19941;-79
2021/09/26 03:47:54;;;;;;;;;;;;;;;12.77;100.00;93182.72;2109538;28;19964;-76
2021/09/26 03:48:54;;;;;;;;;;;;;;;12.70;100.00;93184.88;2117443;27;19907;-78
2021/09/26 03:49:55;;;;;;;;;;;;;;;12.72;100.00;93185.19;2129311;27;19907;-76
2021/09/26 03:50:56;;;;;;;;;;;;;;;12.83;100.00;93185.63;2125129;27;20509;-77
2021/09/26 03:51:57;;;;;;;;;;;;;;;12.77;100.00;93179.28;2115690;28;19915;-79
2021/09/26 03:52:58;;;;;;;;;;;;;;;12.80;100.00;93171.13;2117734;27;19915;-77
2021/09/26 03:53:59;;;;;;;;;;;;;;;12.82;100.00;93176.09;2121928;27;19953;-78
2021/09/26 03:54:59;;;;;;;;;;;;;;;12.79;100.00;93179.63;2121730;27;19914;-79
2021/09/26 03:56:00;;;;;;;;;;;;;;;12.82;100.00;93176.09;2118391;27;20300;-77
2021/09/26 03:57:01;;;;;;;;;;;;;;;12.81;100.00;93177.25;2131677;27;19918;-78
2021/09/26 03:58:02;;;;;;;;;;;;;;;12.79;100.00;93180.38;2112137;28;20735;-79
2021/09/26 03:59:03;;;;;;;;;;;;;;;12.74;100.00;93180.16;2115677;28;19911;-76
2021/09/26 04:00:05;;;;;;;;;;;;;;;12.74;100.00;93178.22;2124715;27;20007;-79
2021/09/26 04:01:06;;;;;;;;;;;;;;;12.73;100.00;93175.94;2127278;27;19959;-79
2021/09/26 04:02:08;;;;;;;;;;;;;;;12.74;100.00;93174.78;2125235;27;19964;-77
2021/09/26 04:03:09;;;;;;;;;;;;;;;12.75;100.00;93169.00;2115511;28;20013;-80
2021/09/26 04:04:10;;;;;;;;;;;;;;;12.79;100.00;93171.56;2115429;28;19915;-80
2021/09/26 04:05:11;;;;;;;;;;;;;;;12.78;100.00;93167.38;2115670;28;20280;-77
2021/09/26 04:06:12;;;;;;;;;;;;;;;12.79;100.00;93166.22;2109333;28;19912;-76
2021/09/26 04:07:12;;;;;;;;;;;;;;;12.75;100.00;93168.25;2106874;28;20477;-78
2021/09/26 04:08:14;;;;;;;;;;;;;;;12.75;100.00;93176.28;2115396;27;19912;-77
2021/09/26 04:09:15;;;;;;;;;;;;;;;12.67;100.00;93169.63;2115373;28;19908;-80
2021/09/26 04:10:16;;;;;;;;;;;;;;;12.59;100.00;93169.06;2117647;27;19954;-79
2021/09/26 04:11:18;;;;;;;;;;;;;;;12.55;100.00;93165.72;2129143;27;19911;-78
2021/09/26 04:12:19;;;;;;;;;;;;;;;12.54;100.00;93175.72;2116750;27;20366;-78
2021/09/26 04:13:20;;;;;;;;;;;;;;;12.50;100.00;93171.63;2115625;28;19907;-80
2021/09/26 04:14:20;;;;;;;;;;;;;;;12.53;100.00;93174.22;2130222;27;20001;-78
2021/09/26 04:15:21;;;;;;;;;;;;;;;12.50;100.00;93174.31;2119796;27;19946;-78
2021/09/26 04:16:22;;;;;;;;;;;;;;;12.45;100.00;93167.53;2116238;28;19943;-79
2021/09/26 04:17:23;;;;;;;;;;;;;;;12.44;100.00;93166.03;2124627;27;19911;-78
2021/09/26 04:18:23;;;;;;;;;;;;;;;12.44;100.00;93166.03;2115379;28;19911;-80
2021/09/26 04:19:24;;;;;;;;;;;;;;;12.40;100.00;93162.72;2121625;27;19961;-77
2021/09/26 04:20:25;;;;;;;;;;;;;;;12.31;100.00;93159.91;2116745;27;19923;-78
2021/09/26 04:21:26;;;;;;;;;;;;;;;12.30;100.00;93155.72;2115647;28;19911;-77
2021/09/26 04:22:27;;;;;;;;;;;;;;;12.42;100.00;93152.31;2126932;27;20287;-78
2021/09/26 04:23:28;;;;;;;;;;;;;;;12.47;100.00;93153.72;2125977;27;19998;-77
2021/09/26 04:24:29;;;;;;;;;;;;;;;12.37;100.00;93146.72;2122055;27;19911;-80
2021/09/26 04:25:30;;;;;;;;;;;;;;;12.33;100.00;93146.81;2100777;28;19916;-79
2021/09/26 04:26:31;;;;;;;;;;;;;;;12.29;100.00;93146.16;2107078;28;20321;-80
2021/09/26 04:27:31;;;;;;;;;;;;;;;12.32;100.00;93145.31;2124369;27;19915;-79
2021/09/26 04:28:32;;;;;;;;;;;;;;;12.20;100.00;93144.09;2115197;28;19915;-78
2021/09/26 04:29:33;;;;;;;;;;;;;;;12.24;100.00;93144.00;2116050;27;19916;-78
2021/09/26 04:30:36;;;;;;;;;;;;;;;12.24;100.00;93144.75;2123476;27;19918;-80
2021/09/26 04:31:37;;;;;;;;;;;;;;;12.20;100.00;93156.75;2115328;28;19924;-79
2021/09/26 04:32:38;;;;;;;;;;;;;;;12.16;100.00;93156.88;2115264;28;19950;-78
2021/09/26 04:33:39;;;;;;;;;;;;;;;12.22;100.00;93159.78;2115887;27;20281;-81
2021/09/26 04:34:40;;;;;;;;;;;;;;;12.22;100.00;93160.53;2107004;28;19951;-80
2021/09/26 04:35:41;;;;;;;;;;;;;;;12.41;100.00;93163.47;2115171;28;19912;-77
2021/09/26 04:36:41;;;;;;;;;;;;;;;12.33;100.00;93160.97;2124378;27;19918;-78
2021/09/26 04:37:42;;;;;;;;;;;;;;;12.33;100.00;93162.91;2124340;27;19908;-79
2021/09/26 04:38:43;;;;;;;;;;;;;;;12.25;100.00;93167.72;2124473;27;19911;-79
2021/09/26 04:39:44;;;;;;;;;;;;;;;12.22;100.00;93165.13;2130853;27;20033;-81
2021/09/26 04:40:45;;;;;;;;;;;;;;;12.23;100.00;93158.59;2116520;27;19908;-78
2021/09/26 04:41:46;;;;;;;;;;;;;;;12.20;100.00;93159.44;2112004;28;19939;-80
2021/09/26 04:42:47;;;;;;;;;;;;;;;12.23;100.00;93158.59;2106750;28;19916;-82
2021/09/26 04:43:47;;;;;;;;;;;;;;;12.12;100.00;93160.81;2115284;28;20316;-78
2021/09/26 04:44:48;;;;;;;;;;;;;;;12.16;100.00;93156.88;2116183;27;19915;-76
2021/09/26 04:45:49;;;;;;;;;;;;;;;12.14;100.00;93153.09;2115618;28;20469;-78
2021/09/26 04:46:50;;;;;;;;;;;;;;;12.12;100.00;93152.78;2125458;27;19915;-80
2021/09/26 04:47:50;;;;;;;;;;;;;;;12.09;100.00;93147.09;2128367;27;19910;-78
2021/09/26 04:48:51;;;;;;;;;;;;;;;12.03;100.00;93151.47;2126884;27;19944;-78
2021/09/26 04:49:52;;;;;;;;;;;;;;;11.96;100.00;93148.22;2119003;27;19956;-77
2021/09/26 04:50:53;;;;;;;;;;;;;;;12.00;100.00;93146.19;2128310;27;20363;-78
2021/09/26 04:51:57;;;;;;;;;;;;;;;11.95;100.00;93152.06;2130341;27;19907;-80
2021/09/26 04:52:58;;;;;;;;;;;;;;;11.89;100.00;93162.53;2124279;27;19907;-80
2021/09/26 04:53:59;;;;;;;;;;;;;;;11.86;100.00;93157.28;2124333;27;19914;-78
2021/09/26 04:55:00;;;;;;;;;;;;;;;11.86;100.00;93168.00;2124348;27;19908;-78
2021/09/26 04:56:01;;;;;;;;;;;;;;;11.82;100.00;93168.84;2117150;27;19914;-78
2021/09/26 04:57:02;;;;;;;;;;;;;;;11.77;100.00;93169.34;2115202;28;19923;-78
2021/09/26 04:58:06;;;;;;;;;;;;;;;11.77;100.00;93169.34;2115449;28;20334;-79
2021/09/26 04:59:06;;;;;;;;;;;;;;;11.75;100.00;93173.59;2116302;27;20563;-78
2021/09/26 05:00:08;;;;;;;;;;;;;;;11.74;100.00;93167.50;2112521;28;19907;-79
2021/09/26 05:01:10;;;;;;;;;;;;;;;11.85;100.00;93175.25;2109558;27;19944;-78
2021/09/26 05:02:11;;;;;;;;;;;;;;;11.85;100.00;93169.91;2119481;27;19919;-76
2021/09/26 05:03:12;;;;;;;;;;;;;;;11.86;100.00;93168.75;2125527;27;20554;-80
2021/09/26 05:04:12;;;;;;;;;;;;;;;11.84;100.00;93171.09;2124441;27;19910;-77
2021/09/26 05:05:13;;;;;;;;;;;;;;;11.89;100.00;93169.81;2114938;28;19941;-78
2021/09/26 05:06:15;;;;;;;;;;;;;;;11.86;100.00;93160.72;2118749;27;20351;-79
2021/09/26 05:07:16;;;;;;;;;;;;;;;11.93;100.00;93162.44;2123822;27;20006;-79
2021/09/26 05:08:16;;;;;;;;;;;;;;;11.97;100.00;93152.41;2125390;27;20390;-80
2021/09/26 05:09:17;;;;;;;;;;;;;;;11.96;100.00;93148.22;2128368;27;19964;-79
2021/09/26 05:10:18;;;;;;;;;;;;;;;12.03;100.00;93142.69;2131743;27;19906;-78
2021/09/26 05:11:19;;;;;;;;;;;;;;;12.05;100.00;93143.75;2124285;27;19907;-76
2021/09/26 05:12:19;;;;;;;;;;;;;;;11.98;100.00;93135.13;2126286;27;19916;-80
2021/09/26 05:13:20;;;;;;;;;;;;;;;11.95;100.00;93136.75;2125587;27;19919;-80
2021/09/26 05:14:21;;;;;;;;;;;;;;;11.90;100.00;93139.97;2114372;28;19915;-79
2021/09/26 05:15:22;;;;;;;;;;;;;;;12.04;100.00;93141.50;2106705;28;19955;-78